createdAt,value
2023-01-17T00:02:21.387Z,4.30
2023-01-17T00:05:06.816Z,4.50
2023-01-17T00:07:52.513Z,4.20
2023-01-17T00:10:23.616Z,4.20
2023-01-17T00:12:54.945Z,4.40
2023-01-17T00:15:25.997Z,4.40
2023-01-17T00:17:54.096Z,4.50
2023-01-17T00:20:47.366Z,4.20
2023-01-17T00:23:39.621Z,4.20
2023-01-17T00:26:13.681Z,4.30
2023-01-17T00:28:43.295Z,4.20
2023-01-17T00:31:12.780Z,4.20
2023-01-17T00:33:40.090Z,4.50
2023-01-17T00:36:08.756Z,4.40
2023-01-17T00:38:38.678Z,4.30
2023-01-17T00:41:13.061Z,4.20
2023-01-17T00:43:59.157Z,4.30
2023-01-17T00:46:45.166Z,4.40
2023-01-17T00:49:30.860Z,4.40
2023-01-17T00:52:16.339Z,4.40
2023-01-17T00:55:01.612Z,4.50
2023-01-17T00:57:47.707Z,4.40
2023-01-17T01:00:34.015Z,4.40
2023-01-17T01:03:19.503Z,4.30
2023-01-17T01:06:04.790Z,4.30
2023-01-17T01:08:52.791Z,4.60
2023-01-17T01:11:39.966Z,4.30
2023-01-17T01:14:28.943Z,4.20
2023-01-17T01:17:14.962Z,4.50
2023-01-17T01:20:00.399Z,4.50
2023-01-17T01:22:45.741Z,4.30
2023-01-17T01:25:31.105Z,4.70
2023-01-17T01:28:28.399Z,4.40
2023-01-17T01:31:14.300Z,4.40
2023-01-17T01:33:41.390Z,4.40
2023-01-17T01:36:10.004Z,4.30
2023-01-17T01:38:37.426Z,4.50
2023-01-17T01:41:05.265Z,4.50
2023-01-17T01:43:52.613Z,4.30
2023-01-17T01:46:40.852Z,4.70
2023-01-17T01:49:21.253Z,4.60
2023-01-17T01:51:58.527Z,4.30
2023-01-17T01:55:08.004Z,4.40
2023-01-17T01:57:42.262Z,4.30
2023-01-17T02:00:17.709Z,4.50
2023-01-17T02:02:48.572Z,4.40
2023-01-17T02:05:19.702Z,4.40
2023-01-17T02:07:59.175Z,4.40
2023-01-17T02:10:26.278Z,4.40
2023-01-17T02:12:55.071Z,4.50
2023-01-17T02:15:31.846Z,4.50
2023-01-17T02:18:35.837Z,4.60
2023-01-17T02:22:06.080Z,4.30
2023-01-17T02:25:00.551Z,4.30
2023-01-17T02:28:04.305Z,4.50
2023-01-17T02:30:37.169Z,4.20
2023-01-17T02:33:36.956Z,4.60
2023-01-17T02:36:41.036Z,4.60
2023-01-17T02:39:28.607Z,4.40
2023-01-17T02:42:04.644Z,4.40
2023-01-17T02:44:44.441Z,4.50
2023-01-17T02:47:26.463Z,4.60
2023-01-17T02:50:10.619Z,4.40
2023-01-17T02:53:02.624Z,4.10
2023-01-17T02:56:01.053Z,4.50
2023-01-17T02:59:32.061Z,5.20
2023-01-17T03:02:19.933Z,4.10
2023-01-17T03:04:57.823Z,4.30
2023-01-17T03:07:28.252Z,4.30
2023-01-17T03:10:03.611Z,6.60
2023-01-17T03:12:36.752Z,4.50
2023-01-17T03:15:08.750Z,4.30
2023-01-17T03:17:36.194Z,4.30
2023-01-17T03:20:03.375Z,4.40
2023-01-17T03:22:30.642Z,4.20
2023-01-17T03:24:58.342Z,4.30
2023-01-17T03:27:25.381Z,4.30
2023-01-17T03:29:52.428Z,4.30
2023-01-17T03:32:19.478Z,4.30
2023-01-17T03:34:46.450Z,4.10
2023-01-17T03:37:13.435Z,4.20
2023-01-17T03:39:40.498Z,4.30
2023-01-17T03:42:08.147Z,4.30
2023-01-17T03:44:35.175Z,4.50
2023-01-17T03:47:02.357Z,4.40
2023-01-17T03:49:29.408Z,4.30
2023-01-17T03:51:56.409Z,4.20
2023-01-17T03:54:23.428Z,4.20
2023-01-17T03:56:50.846Z,4.20
2023-01-17T03:59:17.889Z,4.20
2023-01-17T04:01:45.024Z,3.90
2023-01-17T04:04:12.239Z,4.00
2023-01-17T04:06:39.291Z,4.20
2023-01-17T04:09:06.305Z,4.30
2023-01-17T04:11:33.539Z,4.20
2023-01-17T04:14:00.585Z,4.20
2023-01-17T04:16:31.948Z,4.30
2023-01-17T04:18:59.115Z,4.10
2023-01-17T04:21:26.155Z,4.10
2023-01-17T04:23:53.236Z,3.90
2023-01-17T04:26:20.272Z,4.30
2023-01-17T04:28:47.279Z,4.30
2023-01-17T04:31:18.084Z,4.00
2023-01-17T04:33:45.196Z,4.60
2023-01-17T04:36:12.386Z,4.30
2023-01-17T04:38:39.499Z,4.30
2023-01-17T04:41:06.577Z,4.20
2023-01-17T04:43:33.784Z,4.10
2023-01-17T04:46:01.452Z,4.20
2023-01-17T04:48:28.685Z,4.30
2023-01-17T04:51:04.447Z,4.20
2023-01-17T04:53:32.450Z,4.30
2023-01-17T04:55:59.618Z,4.40
2023-01-17T04:58:27.789Z,4.10
2023-01-17T05:00:55.014Z,4.30
2023-01-17T05:03:23.532Z,4.10
2023-01-17T05:05:50.620Z,4.20
2023-01-17T05:08:17.905Z,4.20
2023-01-17T05:10:47.250Z,4.20
2023-01-17T05:13:15.061Z,4.20
2023-01-17T05:15:42.328Z,3.90
2023-01-17T05:18:17.965Z,3.90
2023-01-17T05:20:45.310Z,3.90
2023-01-17T05:23:12.786Z,3.90
2023-01-17T05:25:44.850Z,3.80
2023-01-17T05:28:13.633Z,3.80
2023-01-17T05:30:41.439Z,3.80
2023-01-17T05:33:10.322Z,3.70
2023-01-17T05:35:38.105Z,3.80
2023-01-17T05:38:05.560Z,3.80
2023-01-17T05:40:34.237Z,3.80
2023-01-17T05:43:03.394Z,3.90
2023-01-17T05:45:33.293Z,3.70
2023-01-17T05:48:01.670Z,3.80
2023-01-17T05:50:38.277Z,3.60
2023-01-17T05:53:13.034Z,3.60
2023-01-17T05:55:41.365Z,3.40
2023-01-17T05:58:15.771Z,3.30
2023-01-17T06:00:42.996Z,3.60
2023-01-17T06:03:10.535Z,3.40
2023-01-17T06:05:38.274Z,3.60
2023-01-17T06:08:05.975Z,3.70
2023-01-17T06:10:33.479Z,3.80
2023-01-17T06:13:14.361Z,3.70
2023-01-17T06:15:41.621Z,3.40
2023-01-17T06:18:11.842Z,3.60
2023-01-17T06:20:39.885Z,3.70
2023-01-17T06:23:12.388Z,3.70
2023-01-17T06:25:45.706Z,3.70
2023-01-17T06:28:16.862Z,3.50
2023-01-17T06:30:44.734Z,3.50
2023-01-17T06:33:13.170Z,3.50
2023-01-17T06:35:46.745Z,3.30
2023-01-17T06:38:13.803Z,3.50
2023-01-17T06:40:40.839Z,3.60
2023-01-17T06:43:07.942Z,3.50
2023-01-17T06:45:36.289Z,2.90
2023-01-17T06:48:05.216Z,3.00
2023-01-17T06:50:33.547Z,3.00
2023-01-17T06:53:06.889Z,2.90
2023-01-17T06:55:35.251Z,2.90
2023-01-17T06:58:03.997Z,2.80
2023-01-17T07:00:35.055Z,2.80
2023-01-17T07:03:02.852Z,2.80
2023-01-17T07:05:29.955Z,2.70
2023-01-17T07:07:58.113Z,2.50
2023-01-17T07:10:25.353Z,2.90
2023-01-17T07:12:59.947Z,2.90
2023-01-17T07:15:27.039Z,2.70
2023-01-17T07:17:54.098Z,2.70
2023-01-17T07:20:21.220Z,2.90
2023-01-17T07:22:48.346Z,2.60
2023-01-17T07:25:15.417Z,2.70
2023-01-17T07:27:42.474Z,2.60
2023-01-17T07:30:10.798Z,2.30
2023-01-17T07:32:38.264Z,2.60
2023-01-17T07:35:06.825Z,2.60
2023-01-17T07:37:33.871Z,2.70
2023-01-17T07:40:02.564Z,2.60
2023-01-17T07:42:29.671Z,2.80
2023-01-17T07:44:56.672Z,2.80
2023-01-17T07:47:24.904Z,2.70
2023-01-17T07:49:52.011Z,2.60
2023-01-17T07:52:19.068Z,2.50
2023-01-17T07:54:46.102Z,2.60
2023-01-17T07:57:13.159Z,2.70
2023-01-17T07:59:40.232Z,2.50
2023-01-17T08:02:20.428Z,2.70
2023-01-17T08:04:48.954Z,2.80
2023-01-17T08:07:16.481Z,2.80
2023-01-17T08:09:44.824Z,2.90
2023-01-17T08:12:11.928Z,2.80
2023-01-17T08:14:38.928Z,2.80
2023-01-17T08:17:20.489Z,3.00
2023-01-17T08:19:50.214Z,2.80
2023-01-17T08:22:17.294Z,2.90
2023-01-17T08:24:44.859Z,2.70
2023-01-17T08:27:11.984Z,2.90
2023-01-17T08:29:42.232Z,2.90
2023-01-17T08:32:09.385Z,3.10
2023-01-17T08:34:36.417Z,2.90
2023-01-17T08:37:03.591Z,3.00
2023-01-17T08:39:32.729Z,3.10
2023-01-17T08:42:04.274Z,3.20
2023-01-17T08:44:35.961Z,4.00
2023-01-17T08:47:03.170Z,3.40
2023-01-17T08:49:33.059Z,3.60
2023-01-17T08:52:02.558Z,3.70
2023-01-17T08:54:29.705Z,3.70
2023-01-17T08:56:56.861Z,3.70
2023-01-17T08:59:24.151Z,4.10
2023-01-17T09:01:52.715Z,4.20
2023-01-17T09:04:20.033Z,4.40
2023-01-17T09:06:48.582Z,4.60
2023-01-17T09:09:17.871Z,5.20
2023-01-17T09:11:44.979Z,5.50
2023-01-17T09:14:13.481Z,5.90
2023-01-17T09:16:40.871Z,6.40
2023-01-17T09:19:08.051Z,6.50
2023-01-17T09:21:35.147Z,6.50
2023-01-17T09:24:02.265Z,6.90
2023-01-17T09:26:30.809Z,6.90
2023-01-17T09:28:58.858Z,7.00
2023-01-17T09:31:29.671Z,6.40
2023-01-17T09:33:58.357Z,6.00
2023-01-17T09:36:29.156Z,5.40
2023-01-17T09:39:00.639Z,5.30
2023-01-17T09:41:35.098Z,4.60
2023-01-17T09:44:34.140Z,4.80
2023-01-17T09:47:32.004Z,4.90
2023-01-17T09:50:31.754Z,5.00
2023-01-17T09:53:17.007Z,4.60
2023-01-17T09:56:09.915Z,4.90
2023-01-17T09:59:18.768Z,4.60
2023-01-17T10:02:28.728Z,4.70
2023-01-17T10:05:36.814Z,5.20
2023-01-17T10:08:15.839Z,4.90
2023-01-17T10:11:32.817Z,5.20
2023-01-17T10:14:19.040Z,5.10
2023-01-17T10:17:19.181Z,5.40
2023-01-17T10:20:13.471Z,5.50
2023-01-17T10:23:18.182Z,5.80
2023-01-17T10:25:50.664Z,6.70
2023-01-17T10:28:32.940Z,6.90
2023-01-17T10:31:22.719Z,6.90
2023-01-17T10:34:21.964Z,6.90
2023-01-17T10:37:05.994Z,7.20
2023-01-17T10:39:33.992Z,7.10
2023-01-17T10:42:27.132Z,6.80
2023-01-17T10:45:28.819Z,6.60
2023-01-17T10:48:09.359Z,6.20
2023-01-17T10:51:13.768Z,5.90
2023-01-17T10:54:12.655Z,5.90
2023-01-17T10:56:43.927Z,5.70
2023-01-17T10:59:19.068Z,5.80
2023-01-17T11:01:46.244Z,5.80
2023-01-17T11:04:33.700Z,6.00
2023-01-17T11:07:21.516Z,6.40
2023-01-17T11:09:52.338Z,7.00
2023-01-17T11:12:32.492Z,7.40
2023-01-17T11:15:05.000Z,7.90
2023-01-17T11:17:34.204Z,8.00
2023-01-17T11:20:44.849Z,8.30
2023-01-17T11:23:34.178Z,7.90
2023-01-17T11:26:06.089Z,7.70
2023-01-17T11:28:37.311Z,7.30
2023-01-17T11:31:26.677Z,7.30
2023-01-17T11:34:18.769Z,6.90
2023-01-17T11:36:45.933Z,6.90
2023-01-17T11:39:22.660Z,6.90
2023-01-17T11:41:51.180Z,7.30
2023-01-17T11:44:32.529Z,7.80
2023-01-17T11:47:11.249Z,8.10
2023-01-17T11:49:41.608Z,8.20
2023-01-17T11:52:26.637Z,8.30
2023-01-17T11:54:55.777Z,8.30
2023-01-17T11:57:36.749Z,7.60
2023-01-17T12:00:32.203Z,7.80
2023-01-17T12:03:28.862Z,7.70
2023-01-17T12:06:51.479Z,8.20
2023-01-17T12:09:52.687Z,8.40
2023-01-17T12:12:53.298Z,8.40
2023-01-17T12:15:27.368Z,8.20
2023-01-17T12:18:28.233Z,7.80
2023-01-17T12:21:10.712Z,7.70
2023-01-17T12:24:04.121Z,8.20
2023-01-17T12:26:43.846Z,8.30
2023-01-17T12:29:47.284Z,8.30
2023-01-17T12:32:53.188Z,8.00
2023-01-17T12:35:38.695Z,8.00
2023-01-17T12:38:38.746Z,8.00
2023-01-17T12:41:26.689Z,8.10
2023-01-17T12:44:01.633Z,8.00
2023-01-17T12:46:49.153Z,7.80
2023-01-17T12:50:14.628Z,7.80
2023-01-17T12:52:50.692Z,7.50
2023-01-17T12:55:37.858Z,7.40
2023-01-17T12:58:16.001Z,7.40
2023-01-17T13:00:47.125Z,7.50
2023-01-17T13:04:12.782Z,7.40
2023-01-17T13:07:00.555Z,7.10
2023-01-17T13:09:37.988Z,7.00
2023-01-17T13:12:13.425Z,7.10
2023-01-17T13:14:40.977Z,7.00
2023-01-17T13:17:31.697Z,7.00
2023-01-17T13:20:29.056Z,7.10
2023-01-17T13:23:12.731Z,6.90
2023-01-17T13:25:50.875Z,6.80
2023-01-17T13:28:22.564Z,7.30
2023-01-17T13:30:57.994Z,7.40
2023-01-17T13:34:22.103Z,7.40
2023-01-17T13:37:32.617Z,7.40
2023-01-17T13:40:45.996Z,7.30
2023-01-17T13:43:28.885Z,7.30
2023-01-17T13:46:03.497Z,6.80
2023-01-17T13:48:40.915Z,6.70
2023-01-17T13:51:11.500Z,7.00
2023-01-17T13:53:41.508Z,6.90
2023-01-17T13:56:14.023Z,6.60
2023-01-17T13:58:51.662Z,6.70
2023-01-17T14:01:25.121Z,6.80
2023-01-17T14:03:52.289Z,6.70
2023-01-17T14:06:46.448Z,6.80
2023-01-17T14:09:41.912Z,6.60
2023-01-17T14:12:11.968Z,6.90
2023-01-17T14:14:42.098Z,6.60
2023-01-17T14:17:25.831Z,6.40
2023-01-17T14:20:01.625Z,6.50
2023-01-17T14:22:35.700Z,6.50
2023-01-17T14:25:20.997Z,6.70
2023-01-17T14:27:56.929Z,6.20
2023-01-17T14:30:37.627Z,6.00
2023-01-17T14:33:34.667Z,6.10
2023-01-17T14:36:07.230Z,6.00
2023-01-17T14:38:42.673Z,5.90
2023-01-17T14:41:24.861Z,6.00
2023-01-17T14:43:53.050Z,6.00
2023-01-17T14:46:34.944Z,5.80
2023-01-17T14:49:06.104Z,5.80
2023-01-17T14:51:37.321Z,5.80
2023-01-17T14:54:21.422Z,5.60
2023-01-17T14:56:48.490Z,5.40
2023-01-17T14:59:23.197Z,5.60
2023-01-17T15:02:07.618Z,5.30
2023-01-17T15:04:39.683Z,4.90
2023-01-17T15:07:12.725Z,5.20
2023-01-17T15:09:44.597Z,5.10
2023-01-17T15:12:16.807Z,5.20
2023-01-17T15:14:48.581Z,5.20
2023-01-17T15:17:17.961Z,4.80
2023-01-17T15:19:53.511Z,4.80
2023-01-17T15:22:21.230Z,4.70
2023-01-17T15:24:49.681Z,4.90
2023-01-17T15:27:17.856Z,4.80
2023-01-17T15:29:46.805Z,4.80
2023-01-17T15:32:31.274Z,4.80
2023-01-17T15:35:02.592Z,4.70
2023-01-17T15:37:32.859Z,4.50
2023-01-17T15:40:27.431Z,4.60
2023-01-17T15:43:01.079Z,4.80
2023-01-17T15:45:33.654Z,4.40
2023-01-17T15:48:41.112Z,4.50
2023-01-17T15:51:11.951Z,4.50
2023-01-17T15:53:43.323Z,4.50
2023-01-17T15:56:33.156Z,4.70
2023-01-17T15:59:39.521Z,4.40
2023-01-17T16:02:43.738Z,4.20
2023-01-17T16:05:31.110Z,4.30
2023-01-17T16:08:33.321Z,4.30
2023-01-17T16:11:03.732Z,4.30
2023-01-17T16:13:42.381Z,4.20
2023-01-17T16:16:19.943Z,4.00
2023-01-17T16:18:48.859Z,4.20
2023-01-17T16:21:26.408Z,4.70
2023-01-17T16:23:54.240Z,4.30
2023-01-17T16:26:22.045Z,5.70
2023-01-17T16:28:50.361Z,4.00
2023-01-17T16:31:18.255Z,4.30
2023-01-17T16:33:46.187Z,4.30
2023-01-17T16:36:17.442Z,4.30
2023-01-17T16:38:45.817Z,4.20
2023-01-17T16:41:13.185Z,4.30
2023-01-17T16:43:43.390Z,4.20
2023-01-17T16:46:12.247Z,4.30
2023-01-17T16:49:00.826Z,4.30
2023-01-17T16:51:28.071Z,4.40
2023-01-17T16:53:55.268Z,4.40
2023-01-17T16:56:22.515Z,4.30
2023-01-17T16:58:53.189Z,4.30
2023-01-17T17:01:22.902Z,4.30
2023-01-17T17:03:51.467Z,4.30
2023-01-17T17:06:18.845Z,4.30
2023-01-17T17:08:46.169Z,4.10
2023-01-17T17:11:23.224Z,4.20
2023-01-17T17:13:51.885Z,4.20
2023-01-17T17:16:34.064Z,3.90
2023-01-17T17:19:04.864Z,4.10
2023-01-17T17:21:34.831Z,4.60
2023-01-17T17:24:05.038Z,4.70
2023-01-17T17:26:36.630Z,4.70
2023-01-17T17:29:05.855Z,4.50
2023-01-17T17:31:33.537Z,4.60
2023-01-17T17:34:03.654Z,4.50
2023-01-17T17:36:31.485Z,4.50
2023-01-17T17:38:59.104Z,4.40
2023-01-17T17:41:33.230Z,4.60
2023-01-17T17:44:02.727Z,4.60
2023-01-17T17:46:31.412Z,4.80
2023-01-17T17:48:59.617Z,4.60
2023-01-17T17:51:40.567Z,4.50
2023-01-17T17:54:12.231Z,4.80
2023-01-17T17:56:41.195Z,4.60
2023-01-17T17:59:09.707Z,4.70
2023-01-17T18:01:38.333Z,4.70
2023-01-17T18:04:07.583Z,4.80
2023-01-17T18:06:40.345Z,4.80
2023-01-17T18:09:10.155Z,4.60
2023-01-17T18:11:40.057Z,4.70
2023-01-17T18:14:12.166Z,4.70
2023-01-17T18:16:43.513Z,4.80
2023-01-17T18:19:23.333Z,4.80
2023-01-17T18:21:51.650Z,4.80
2023-01-17T18:24:25.284Z,4.40
2023-01-17T18:26:58.923Z,4.60
2023-01-17T18:29:27.848Z,4.60
2023-01-17T18:31:55.741Z,4.70
2023-01-17T18:34:29.448Z,4.40
2023-01-17T18:36:58.741Z,4.40
2023-01-17T18:39:29.475Z,4.50
2023-01-17T18:41:57.048Z,4.50
2023-01-17T18:44:26.852Z,4.20
2023-01-17T18:46:55.157Z,4.30
2023-01-17T18:49:22.402Z,4.50
2023-01-17T18:51:51.302Z,4.30
2023-01-17T18:54:20.508Z,4.20
2023-01-17T18:56:48.294Z,4.10
2023-01-17T18:59:18.589Z,4.20
2023-01-17T19:01:46.587Z,4.20
2023-01-17T19:04:15.979Z,4.00
2023-01-17T19:06:46.812Z,3.80
2023-01-17T19:09:16.375Z,4.20
2023-01-17T19:11:45.114Z,4.10
2023-01-17T19:14:12.981Z,4.20
2023-01-17T19:16:41.953Z,4.00
2023-01-17T19:19:13.956Z,3.80
2023-01-17T19:21:41.093Z,4.00
2023-01-17T19:24:11.534Z,3.90
2023-01-17T19:26:39.569Z,4.00
2023-01-17T19:29:07.012Z,3.60
2023-01-17T19:31:43.423Z,3.60
2023-01-17T19:34:14.195Z,3.70
2023-01-17T19:36:41.950Z,3.60
2023-01-17T19:39:09.731Z,3.60
2023-01-17T19:41:42.752Z,3.70
2023-01-17T19:44:13.751Z,3.50
2023-01-17T19:46:41.991Z,3.60
2023-01-17T19:49:09.861Z,3.60
2023-01-17T19:51:39.415Z,3.60
2023-01-17T19:54:07.953Z,3.50
2023-01-17T19:56:38.043Z,3.50
2023-01-17T19:59:05.177Z,3.80
2023-01-17T20:01:34.694Z,3.70
2023-01-17T20:04:03.482Z,3.50
2023-01-17T20:06:35.545Z,3.70
2023-01-17T20:09:05.280Z,3.30
2023-01-17T20:11:33.020Z,3.20
2023-01-17T20:14:00.581Z,3.50
2023-01-17T20:16:30.868Z,3.40
2023-01-17T20:19:02.892Z,3.50
2023-01-17T20:21:32.265Z,3.50
2023-01-17T20:24:03.159Z,3.60
2023-01-17T20:26:35.082Z,3.10
2023-01-17T20:29:10.768Z,3.50
2023-01-17T20:31:40.511Z,3.40
2023-01-17T20:34:10.821Z,3.50
2023-01-17T20:36:41.638Z,3.40
2023-01-17T20:39:13.050Z,3.40
2023-01-17T20:41:43.025Z,3.20
2023-01-17T20:44:13.965Z,3.60
2023-01-17T20:46:41.895Z,3.40
2023-01-17T20:49:15.345Z,3.50
2023-01-17T20:51:44.532Z,3.50
2023-01-17T20:54:16.728Z,3.40
2023-01-17T20:56:47.431Z,3.70
2023-01-17T20:59:20.570Z,3.50
2023-01-17T21:01:49.365Z,3.60
2023-01-17T21:04:20.086Z,3.50
2023-01-17T21:06:47.598Z,3.50
2023-01-17T21:09:17.140Z,3.50
2023-01-17T21:11:44.311Z,3.20
2023-01-17T21:14:11.463Z,3.40
2023-01-17T21:16:38.927Z,3.50
2023-01-17T21:19:06.612Z,3.10
2023-01-17T21:21:33.667Z,3.10
2023-01-17T21:24:00.801Z,3.20
2023-01-17T21:26:29.150Z,3.20
2023-01-17T21:28:58.457Z,3.20
2023-01-17T21:31:30.225Z,3.20
2023-01-17T21:34:04.988Z,3.20
2023-01-17T21:36:36.324Z,3.30
2023-01-17T21:39:11.101Z,2.90
2023-01-17T21:41:41.278Z,3.20
2023-01-17T21:44:19.461Z,3.20
2023-01-17T21:46:47.717Z,2.80
2023-01-17T21:49:15.391Z,3.10
2023-01-17T21:51:55.157Z,3.00
2023-01-17T21:54:48.246Z,3.10
2023-01-17T21:57:39.743Z,3.20
2023-01-17T22:00:14.434Z,3.20
2023-01-17T22:02:44.833Z,3.10
2023-01-17T22:05:12.985Z,3.30
2023-01-17T22:07:40.243Z,3.00
2023-01-17T22:10:07.836Z,3.40
2023-01-17T22:12:35.013Z,3.30
2023-01-17T22:15:02.166Z,3.20
2023-01-17T22:17:30.493Z,2.90
2023-01-17T22:19:57.512Z,3.20
2023-01-17T22:22:24.555Z,3.40
2023-01-17T22:24:51.580Z,3.40
2023-01-17T22:27:19.973Z,3.30
2023-01-17T22:29:46.998Z,3.30
2023-01-17T22:32:13.995Z,3.00
2023-01-17T22:34:40.974Z,3.30
2023-01-17T22:37:10.164Z,4.90
2023-01-17T22:39:38.449Z,3.00
2023-01-17T22:42:06.082Z,2.90
2023-01-17T22:44:33.301Z,3.10
2023-01-17T22:47:00.472Z,3.00
2023-01-17T22:49:27.543Z,3.10
2023-01-17T22:51:54.624Z,3.00
2023-01-17T22:54:22.521Z,3.00
2023-01-17T22:56:49.665Z,2.90
2023-01-17T22:59:17.718Z,3.10
2023-01-17T23:01:44.870Z,3.00
2023-01-17T23:04:18.114Z,2.90
2023-01-17T23:06:45.247Z,2.90
2023-01-17T23:09:15.554Z,3.10
2023-01-17T23:11:47.502Z,2.90
2023-01-17T23:14:19.296Z,3.00
2023-01-17T23:17:21.586Z,2.90
2023-01-17T23:19:54.491Z,3.00
2023-01-17T23:22:27.103Z,3.10
2023-01-17T23:24:58.440Z,3.00
2023-01-17T23:27:47.080Z,3.10
2023-01-17T23:30:16.840Z,3.10
2023-01-17T23:32:45.410Z,3.00
2023-01-17T23:35:12.868Z,3.40
2023-01-17T23:37:58.673Z,3.10
2023-01-17T23:40:25.715Z,3.10
2023-01-17T23:43:11.264Z,3.30
2023-01-17T23:45:39.647Z,3.40
2023-01-17T23:48:09.892Z,3.30
2023-01-17T23:50:46.500Z,3.30
2023-01-17T23:53:22.548Z,3.10
2023-01-17T23:55:57.256Z,3.20
2023-01-17T23:58:27.269Z,3.10
